sensor_id;sensor_type;location;lat;lon;timestamp;pressure;altitude;pressure_sealevel;temperature;humidity
67697;BME280;54486;51.442;6.778;2023-04-25T00:01:47;100774.41;;;6.93;90.43
67697;BME280;54486;51.442;6.778;2023-04-25T00:04:14;100783.03;;;6.96;90.36
67697;BME280;54486;51.442;6.778;2023-04-25T00:06:41;100786.53;;;6.98;90.12
67697;BME280;54486;51.442;6.778;2023-04-25T00:09:08;100782.22;;;6.98;90.41
67697;BME280;54486;51.442;6.778;2023-04-25T00:11:37;100793.41;;;6.96;90.05
67697;BME280;54486;51.442;6.778;2023-04-25T00:14:05;100783.91;;;6.91;90.04
67697;BME280;54486;51.442;6.778;2023-04-25T00:16:33;100787.34;;;6.90;90.79
67697;BME280;54486;51.442;6.778;2023-04-25T00:19:01;100791.66;;;6.88;90.55
67697;BME280;54486;51.442;6.778;2023-04-25T00:21:29;100788.16;;;6.86;90.58
67697;BME280;54486;51.442;6.778;2023-04-25T00:23:59;100787.31;;;6.86;90.99
67697;BME280;54486;51.442;6.778;2023-04-25T00:26:27;100784.69;;;6.84;91.15
67697;BME280;54486;51.442;6.778;2023-04-25T00:28:54;100776.97;;;6.90;90.50
67697;BME280;54486;51.442;6.778;2023-04-25T00:31:21;100785.56;;;6.82;90.80
67697;BME280;54486;51.442;6.778;2023-04-25T00:33:48;100796.81;;;6.82;90.61
67697;BME280;54486;51.442;6.778;2023-04-25T00:36:16;100793.31;;;6.80;90.75
67697;BME280;54486;51.442;6.778;2023-04-25T00:38:44;100795.06;;;6.81;91.27
67697;BME280;54486;51.442;6.778;2023-04-25T00:41:11;100799.38;;;6.84;91.05
67697;BME280;54486;51.442;6.778;2023-04-25T00:43:39;100789.91;;;6.86;91.56
67697;BME280;54486;51.442;6.778;2023-04-25T00:46:07;100790.75;;;6.85;91.81
67697;BME280;54486;51.442;6.778;2023-04-25T00:48:34;100787.31;;;6.86;91.60
67697;BME280;54486;51.442;6.778;2023-04-25T00:51:04;100789.91;;;6.87;91.77
67697;BME280;54486;51.442;6.778;2023-04-25T00:53:32;100789.91;;;6.87;91.43
67697;BME280;54486;51.442;6.778;2023-04-25T00:56:02;100794.25;;;6.88;92.05
67697;BME280;54486;51.442;6.778;2023-04-25T00:58:30;100795.13;;;6.90;92.54
67697;BME280;54486;51.442;6.778;2023-04-25T01:00:57;100795.13;;;6.90;91.79
67697;BME280;54486;51.442;6.778;2023-04-25T01:03:25;100795.97;;;6.89;91.82
67697;BME280;54486;51.442;6.778;2023-04-25T01:05:54;100796.88;;;6.95;91.78
67697;BME280;54486;51.442;6.778;2023-04-25T01:08:24;100797.78;;;6.98;91.90
67697;BME280;54486;51.442;6.778;2023-04-25T01:10:52;100796.88;;;6.95;92.17
67697;BME280;54486;51.442;6.778;2023-04-25T01:13:20;100800.34;;;6.93;92.01
67697;BME280;54486;51.442;6.778;2023-04-25T01:15:48;100796.88;;;6.91;92.63
67697;BME280;54486;51.442;6.778;2023-04-25T01:18:19;100804.69;;;6.98;92.26
67697;BME280;54486;51.442;6.778;2023-04-25T01:20:55;100802.09;;;6.98;92.22
67697;BME280;54486;51.442;6.778;2023-04-25T01:23:22;100805.53;;;6.97;92.27
67697;BME280;54486;51.442;6.778;2023-04-25T01:25:50;100808.16;;;7.00;92.42
67697;BME280;54486;51.442;6.778;2023-04-25T01:28:18;100809.84;;;6.96;93.43
67697;BME280;54486;51.442;6.778;2023-04-25T01:30:46;100809.03;;;6.99;93.36
67697;BME280;54486;51.442;6.778;2023-04-25T01:33:13;100810.75;;;7.00;93.62
67697;BME280;54486;51.442;6.778;2023-04-25T01:35:41;100809.03;;;6.99;93.23
67697;BME280;54486;51.442;6.778;2023-04-25T01:38:08;100813.34;;;7.00;93.16
67697;BME280;54486;51.442;6.778;2023-04-25T01:40:38;100814.25;;;7.02;93.24
67697;BME280;54486;51.442;6.778;2023-04-25T01:43:08;100811.66;;;7.03;93.86
67697;BME280;54486;51.442;6.778;2023-04-25T01:45:38;100815.13;;;7.04;93.50
67697;BME280;54486;51.442;6.778;2023-04-25T01:48:10;100817.72;;;7.07;94.33
67697;BME280;54486;51.442;6.778;2023-04-25T01:50:39;100822.91;;;7.07;92.90
67697;BME280;54486;51.442;6.778;2023-04-25T01:53:09;100816.00;;;7.09;93.58
67697;BME280;54486;51.442;6.778;2023-04-25T01:55:38;100823.78;;;7.09;93.71
67697;BME280;54486;51.442;6.778;2023-04-25T01:58:05;100833.34;;;7.13;94.10
67697;BME280;54486;51.442;6.778;2023-04-25T02:00:36;100833.34;;;7.16;93.50
67697;BME280;54486;51.442;6.778;2023-04-25T02:03:07;100824.69;;;7.11;93.73
67697;BME280;54486;51.442;6.778;2023-04-25T02:05:37;100836.78;;;7.12;94.02
67697;BME280;54486;51.442;6.778;2023-04-25T02:08:08;100838.50;;;7.10;93.88
67697;BME280;54486;51.442;6.778;2023-04-25T02:10:36;100831.56;;;7.09;94.49
67697;BME280;54486;51.442;6.778;2023-04-25T02:13:03;100836.75;;;7.09;94.52
67697;BME280;54486;51.442;6.778;2023-04-25T02:15:32;100840.22;;;7.08;95.10
67697;BME280;54486;51.442;6.778;2023-04-25T02:17:59;100840.22;;;7.05;95.65
67697;BME280;54486;51.442;6.778;2023-04-25T02:20:29;100842.81;;;7.05;94.09
67697;BME280;54486;51.442;6.778;2023-04-25T02:22:57;100846.25;;;7.05;94.98
67697;BME280;54486;51.442;6.778;2023-04-25T02:25:25;100845.41;;;7.08;94.60
67697;BME280;54486;51.442;6.778;2023-04-25T02:27:52;100841.94;;;7.09;95.52
67697;BME280;54486;51.442;6.778;2023-04-25T02:30:21;100850.59;;;7.08;95.01
67697;BME280;54486;51.442;6.778;2023-04-25T02:32:48;100853.28;;;7.17;94.28
67697;BME280;54486;51.442;6.778;2023-04-25T02:35:16;100849.75;;;7.12;94.85
67697;BME280;54486;51.442;6.778;2023-04-25T02:37:43;100848.88;;;7.10;94.83
67697;BME280;54486;51.442;6.778;2023-04-25T02:40:11;100846.25;;;7.04;94.88
67697;BME280;54486;51.442;6.778;2023-04-25T02:42:38;100845.38;;;7.02;95.15
67697;BME280;54486;51.442;6.778;2023-04-25T02:45:06;100854.03;;;7.04;95.33
67697;BME280;54486;51.442;6.778;2023-04-25T02:47:33;100850.56;;;7.02;95.28
67697;BME280;54486;51.442;6.778;2023-04-25T02:50:00;100852.28;;;7.03;95.61
67697;BME280;54486;51.442;6.778;2023-04-25T02:52:27;100854.03;;;7.04;95.74
67697;BME280;54486;51.442;6.778;2023-04-25T02:54:55;100848.81;;;7.01;95.78
67697;BME280;54486;51.442;6.778;2023-04-25T02:57:22;100854.00;;;7.01;95.47
67697;BME280;54486;51.442;6.778;2023-04-25T02:59:49;100855.78;;;7.05;95.58
67697;BME280;54486;51.442;6.778;2023-04-25T03:02:16;100855.66;;;6.96;95.36
67697;BME280;54486;51.442;6.778;2023-04-25T03:04:43;100855.66;;;6.96;96.10
67697;BME280;54486;51.442;6.778;2023-04-25T03:07:10;100853.03;;;6.89;95.65
67697;BME280;54486;51.442;6.778;2023-04-25T03:09:38;100850.47;;;6.92;96.34
67697;BME280;54486;51.442;6.778;2023-04-25T03:12:06;100849.63;;;6.97;95.36
67697;BME280;54486;51.442;6.778;2023-04-25T03:14:32;100857.38;;;6.90;95.88
67697;BME280;54486;51.442;6.778;2023-04-25T03:16:59;100850.44;;;6.89;96.18
67697;BME280;54486;51.442;6.778;2023-04-25T03:19:27;100852.19;;;6.90;96.08
67697;BME280;54486;51.442;6.778;2023-04-25T03:21:55;100856.44;;;6.84;96.80
67697;BME280;54486;51.442;6.778;2023-04-25T03:24:22;100857.31;;;6.84;97.04
67697;BME280;54486;51.442;6.778;2023-04-25T03:26:49;100859.06;;;6.85;96.80
67697;BME280;54486;51.442;6.778;2023-04-25T03:29:16;100860.75;;;6.83;96.93
67697;BME280;54486;51.442;6.778;2023-04-25T03:31:43;100860.75;;;6.83;96.94
67697;BME280;54486;51.442;6.778;2023-04-25T03:34:10;100862.50;;;6.84;97.55
67697;BME280;54486;51.442;6.778;2023-04-25T03:36:37;100858.22;;;6.89;96.83
67697;BME280;54486;51.442;6.778;2023-04-25T03:39:07;100868.53;;;6.82;96.88
67697;BME280;54486;51.442;6.778;2023-04-25T03:41:35;100865.03;;;6.78;97.06
67697;BME280;54486;51.442;6.778;2023-04-25T03:44:01;100863.28;;;6.77;97.60
67697;BME280;54486;51.442;6.778;2023-04-25T03:46:29;100857.28;;;6.78;96.38
67697;BME280;54486;51.442;6.778;2023-04-25T03:48:56;100867.59;;;6.72;96.62
67697;BME280;54486;51.442;6.778;2023-04-25T03:51:23;100861.53;;;6.72;96.75
67697;BME280;54486;51.442;6.778;2023-04-25T03:53:51;100875.38;;;6.72;97.08
67697;BME280;54486;51.442;6.778;2023-04-25T03:56:18;100874.50;;;6.73;97.12
67697;BME280;54486;51.442;6.778;2023-04-25T03:58:47;100869.31;;;6.73;97.18
67697;BME280;54486;51.442;6.778;2023-04-25T04:01:15;100876.25;;;6.74;96.57
67697;BME280;54486;51.442;6.778;2023-04-25T04:03:42;100885.75;;;6.77;96.48
67697;BME280;54486;51.442;6.778;2023-04-25T04:06:09;100875.34;;;6.71;95.41
67697;BME280;54486;51.442;6.778;2023-04-25T04:08:37;100878.78;;;6.68;95.73
67697;BME280;54486;51.442;6.778;2023-04-25T04:11:04;100876.19;;;6.68;96.31
67697;BME280;54486;51.442;6.778;2023-04-25T04:13:31;100884.81;;;6.67;96.32
67697;BME280;54486;51.442;6.778;2023-04-25T04:15:58;100886.53;;;6.65;96.17
67697;BME280;54486;51.442;6.778;2023-04-25T04:18:25;100887.34;;;6.60;96.87
67697;BME280;54486;51.442;6.778;2023-04-25T04:20:52;100898.50;;;6.54;96.20
67697;BME280;54486;51.442;6.778;2023-04-25T04:23:19;100894.16;;;6.52;96.25
67697;BME280;54486;51.442;6.778;2023-04-25T04:25:47;100898.41;;;6.48;96.33
67697;BME280;54486;51.442;6.778;2023-04-25T04:28:15;100896.66;;;6.44;97.03
67697;BME280;54486;51.442;6.778;2023-04-25T04:30:43;100900.09;;;6.43;96.91
67697;BME280;54486;51.442;6.778;2023-04-25T04:33:13;100905.25;;;6.40;97.42
67697;BME280;54486;51.442;6.778;2023-04-25T04:35:46;100902.63;;;6.38;97.88
67697;BME280;54486;51.442;6.778;2023-04-25T04:38:13;100906.97;;;6.38;96.76
67697;BME280;54486;51.442;6.778;2023-04-25T04:40:42;100903.47;;;6.36;96.71
67697;BME280;54486;51.442;6.778;2023-04-25T04:43:09;100910.38;;;6.34;97.08
67697;BME280;54486;51.442;6.778;2023-04-25T04:45:36;100914.66;;;6.30;97.00
67697;BME280;54486;51.442;6.778;2023-04-25T04:48:07;100917.16;;;6.26;96.62
67697;BME280;54486;51.442;6.778;2023-04-25T04:50:35;100921.47;;;6.25;96.85
67697;BME280;54486;51.442;6.778;2023-04-25T04:53:03;100918.88;;;6.24;97.54
67697;BME280;54486;51.442;6.778;2023-04-25T04:55:30;100920.50;;;6.16;96.85
67697;BME280;54486;51.442;6.778;2023-04-25T04:57:59;100923.94;;;6.15;97.24
67697;BME280;54486;51.442;6.778;2023-04-25T05:00:27;100924.09;;;6.27;97.49
67697;BME280;54486;51.442;6.778;2023-04-25T05:02:56;100928.25;;;6.16;96.59
67697;BME280;54486;51.442;6.778;2023-04-25T05:05:24;100932.56;;;6.14;96.64
67697;BME280;54486;51.442;6.778;2023-04-25T05:07:51;100942.09;;;6.16;97.41
67697;BME280;54486;51.442;6.778;2023-04-25T05:10:19;100941.16;;;6.13;96.90
67697;BME280;54486;51.442;6.778;2023-04-25T05:12:45;100942.94;;;6.14;97.28
67697;BME280;54486;51.442;6.778;2023-04-25T05:15:13;100942.94;;;6.14;97.42
67697;BME280;54486;51.442;6.778;2023-04-25T05:17:40;100953.31;;;6.17;96.39
67697;BME280;54486;51.442;6.778;2023-04-25T05:20:08;100949.81;;;6.12;96.18
67697;BME280;54486;51.442;6.778;2023-04-25T05:22:36;100956.69;;;6.10;95.91
67697;BME280;54486;51.442;6.778;2023-04-25T05:25:03;100958.47;;;6.14;96.77
67697;BME280;54486;51.442;6.778;2023-04-25T05:27:30;100954.13;;;6.13;96.33
67697;BME280;54486;51.442;6.778;2023-04-25T05:29:57;100962.81;;;6.16;95.90
67697;BME280;54486;51.442;6.778;2023-04-25T05:32:24;100965.47;;;6.22;95.85
67697;BME280;54486;51.442;6.778;2023-04-25T05:34:52;100965.56;;;6.27;94.76
67697;BME280;54486;51.442;6.778;2023-04-25T05:37:19;100969.00;;;6.26;93.76
67697;BME280;54486;51.442;6.778;2023-04-25T05:39:46;100963.00;;;6.28;94.33
67697;BME280;54486;51.442;6.778;2023-04-25T05:42:13;100976.00;;;6.33;93.93
67697;BME280;54486;51.442;6.778;2023-04-25T05:44:40;100980.38;;;6.38;93.79
67697;BME280;54486;51.442;6.778;2023-04-25T05:47:07;100984.75;;;6.41;93.28
67697;BME280;54486;51.442;6.778;2023-04-25T05:49:34;100988.31;;;6.49;93.08
67697;BME280;54486;51.442;6.778;2023-04-25T05:52:01;100988.38;;;6.55;93.09
67697;BME280;54486;51.442;6.778;2023-04-25T05:54:29;100990.25;;;6.68;92.90
67697;BME280;54486;51.442;6.778;2023-04-25T05:56:56;100991.22;;;6.75;92.73
67697;BME280;54486;51.442;6.778;2023-04-25T05:59:24;100999.09;;;6.82;92.38
67697;BME280;54486;51.442;6.778;2023-04-25T06:01:51;100995.63;;;6.83;90.88
67697;BME280;54486;51.442;6.778;2023-04-25T06:04:18;101011.22;;;6.86;90.33
67697;BME280;54486;51.442;6.778;2023-04-25T06:06:46;101006.00;;;6.83;88.33
67697;BME280;54486;51.442;6.778;2023-04-25T06:09:12;101016.41;;;6.86;88.00
67697;BME280;54486;51.442;6.778;2023-04-25T06:11:40;101016.44;;;6.88;89.22
67697;BME280;54486;51.442;6.778;2023-04-25T06:14:08;101008.69;;;6.91;88.32
67697;BME280;54486;51.442;6.778;2023-04-25T06:16:35;101016.59;;;7.02;87.78
67697;BME280;54486;51.442;6.778;2023-04-25T06:19:02;101014.00;;;7.03;86.92
67697;BME280;54486;51.442;6.778;2023-04-25T06:21:29;101010.56;;;7.06;87.30
67697;BME280;54486;51.442;6.778;2023-04-25T06:23:55;101016.72;;;7.14;87.73
67697;BME280;54486;51.442;6.778;2023-04-25T06:26:23;101019.38;;;7.20;88.35
67697;BME280;54486;51.442;6.778;2023-04-25T06:28:49;101014.16;;;7.18;86.51
67697;BME280;54486;51.442;6.778;2023-04-25T06:31:16;101022.88;;;7.23;87.21
67697;BME280;54486;51.442;6.778;2023-04-25T06:33:44;101018.63;;;7.30;86.27
67697;BME280;54486;51.442;6.778;2023-04-25T06:36:11;101032.63;;;7.50;85.35
67697;BME280;54486;51.442;6.778;2023-04-25T06:38:40;101026.66;;;7.56;84.10
67697;BME280;54486;51.442;6.778;2023-04-25T06:41:07;101028.31;;;7.51;84.11
67697;BME280;54486;51.442;6.778;2023-04-25T06:43:34;101025.69;;;7.46;84.45
67697;BME280;54486;51.442;6.778;2023-04-25T06:46:01;101030.13;;;7.56;84.85
67697;BME280;54486;51.442;6.778;2023-04-25T06:48:28;101035.19;;;7.45;83.26
67697;BME280;54486;51.442;6.778;2023-04-25T06:50:55;101035.19;;;7.47;81.75
67697;BME280;54486;51.442;6.778;2023-04-25T06:53:23;101036.88;;;7.39;81.84
67697;BME280;54486;51.442;6.778;2023-04-25T06:55:50;101040.31;;;7.38;83.04
67697;BME280;54486;51.442;6.778;2023-04-25T06:58:18;101037.75;;;7.41;82.69
67697;BME280;54486;51.442;6.778;2023-04-25T07:00:45;101040.28;;;7.35;81.44
67697;BME280;54486;51.442;6.778;2023-04-25T07:03:12;101045.41;;;7.27;81.36
67697;BME280;54486;51.442;6.778;2023-04-25T07:05:39;101043.66;;;7.28;82.79
67697;BME280;54486;51.442;6.778;2023-04-25T07:08:06;101044.47;;;7.21;82.84
67697;BME280;54486;51.442;6.778;2023-04-25T07:10:34;101049.53;;;7.12;84.55
67697;BME280;54486;51.442;6.778;2023-04-25T07:13:01;101058.13;;;7.05;85.05
67697;BME280;54486;51.442;6.778;2023-04-25T07:15:29;101054.69;;;7.09;86.32
67697;BME280;54486;51.442;6.778;2023-04-25T07:17:56;101060.06;;;7.21;87.28
67697;BME280;54486;51.442;6.778;2023-04-25T07:20:23;101056.75;;;7.37;87.10
67697;BME280;54486;51.442;6.778;2023-04-25T07:22:50;101062.94;;;7.50;86.49
67697;BME280;54486;51.442;6.778;2023-04-25T07:25:17;101057.88;;;7.65;86.79
67697;BME280;54486;51.442;6.778;2023-04-25T07:27:44;101066.66;;;7.77;84.06
67697;BME280;54486;51.442;6.778;2023-04-25T07:30:12;101067.50;;;7.76;84.00
67697;BME280;54486;51.442;6.778;2023-04-25T07:32:39;101062.31;;;7.79;83.06
67697;BME280;54486;51.442;6.778;2023-04-25T07:35:06;101062.38;;;7.85;81.60
67697;BME280;54486;51.442;6.778;2023-04-25T07:37:35;101067.69;;;7.97;81.57
67697;BME280;54486;51.442;6.778;2023-04-25T07:40:03;101071.19;;;8.03;80.63
67697;BME280;54486;51.442;6.778;2023-04-25T07:42:30;101076.41;;;8.06;80.12
67697;BME280;54486;51.442;6.778;2023-04-25T07:44:58;101072.06;;;8.08;78.88
67697;BME280;54486;51.442;6.778;2023-04-25T07:47:25;101066.03;;;8.09;79.46
67697;BME280;54486;51.442;6.778;2023-04-25T07:49:52;101074.72;;;8.14;79.44
67697;BME280;54486;51.442;6.778;2023-04-25T07:52:19;101086.09;;;8.26;80.38
67697;BME280;54486;51.442;6.778;2023-04-25T07:54:46;101088.81;;;8.43;80.31
67697;BME280;54486;51.442;6.778;2023-04-25T07:57:14;101090.66;;;8.59;78.13
67697;BME280;54486;51.442;6.778;2023-04-25T07:59:41;101081.22;;;8.73;77.27
67697;BME280;54486;51.442;6.778;2023-04-25T08:02:08;101084.72;;;8.84;76.52
67697;BME280;54486;51.442;6.778;2023-04-25T08:04:35;101094.28;;;8.85;76.15
67697;BME280;54486;51.442;6.778;2023-04-25T08:07:02;101101.22;;;8.86;75.80
67697;BME280;54486;51.442;6.778;2023-04-25T08:09:29;101099.44;;;8.79;73.44
67697;BME280;54486;51.442;6.778;2023-04-25T08:12:01;101105.50;;;8.81;74.72
67697;BME280;54486;51.442;6.778;2023-04-25T08:14:29;101106.41;;;8.83;74.98
67697;BME280;54486;51.442;6.778;2023-04-25T08:17:03;101104.69;;;8.88;74.43
67697;BME280;54486;51.442;6.778;2023-04-25T08:19:30;101110.75;;;8.90;72.72
67697;BME280;54486;51.442;6.778;2023-04-25T08:21:58;101104.75;;;9.00;72.97
67697;BME280;54486;51.442;6.778;2023-04-25T08:24:25;101120.38;;;9.07;71.56
67697;BME280;54486;51.442;6.778;2023-04-25T08:26:52;101119.53;;;9.08;70.51
67697;BME280;54486;51.442;6.778;2023-04-25T08:29:20;101116.06;;;9.12;71.18
67697;BME280;54486;51.442;6.778;2023-04-25T08:31:47;101129.09;;;9.15;68.71
67697;BME280;54486;51.442;6.778;2023-04-25T08:34:15;101129.13;;;9.22;69.61
67697;BME280;54486;51.442;6.778;2023-04-25T08:36:42;101133.47;;;9.22;68.22
67697;BME280;54486;51.442;6.778;2023-04-25T08:39:10;101133.50;;;9.34;67.89
67697;BME280;54486;51.442;6.778;2023-04-25T08:41:37;101140.50;;;9.44;67.48
67697;BME280;54486;51.442;6.778;2023-04-25T08:44:04;101142.25;;;9.49;64.22
67697;BME280;54486;51.442;6.778;2023-04-25T08:46:32;101146.56;;;9.40;64.33
67697;BME280;54486;51.442;6.778;2023-04-25T08:49:02;101153.53;;;9.47;64.32
67697;BME280;54486;51.442;6.778;2023-04-25T08:51:31;101156.97;;;9.40;66.72
67697;BME280;54486;51.442;6.778;2023-04-25T08:54:10;101153.44;;;9.26;63.87
67697;BME280;54486;51.442;6.778;2023-04-25T08:56:57;101153.38;;;9.14;64.55
67697;BME280;54486;51.442;6.778;2023-04-25T08:59:25;101165.50;;;9.07;64.29
67697;BME280;54486;51.442;6.778;2023-04-25T09:01:53;101171.59;;;9.06;65.12
67697;BME280;54486;51.442;6.778;2023-04-25T09:04:20;101174.22;;;9.14;63.43
67697;BME280;54486;51.442;6.778;2023-04-25T09:06:47;101171.63;;;9.14;63.75
67697;BME280;54486;51.442;6.778;2023-04-25T09:09:15;101177.72;;;9.16;63.77
67697;BME280;54486;51.442;6.778;2023-04-25T09:11:42;101174.25;;;9.26;63.58
67697;BME280;54486;51.442;6.778;2023-04-25T09:19:24;101186.56;;;9.57;64.03
67697;BME280;54486;51.442;6.778;2023-04-25T09:22:06;101190.06;;;9.68;64.62
67697;BME280;54486;51.442;6.778;2023-04-25T09:24:41;101198.78;;;9.84;62.90
67697;BME280;54486;51.442;6.778;2023-04-25T09:27:11;101189.28;;;10.01;64.02
67697;BME280;54486;51.442;6.778;2023-04-25T09:29:40;101193.66;;;10.19;61.63
67697;BME280;54486;51.442;6.778;2023-04-25T09:32:23;101196.28;;;10.23;56.71
67697;BME280;54486;51.442;6.778;2023-04-25T09:34:52;101202.38;;;10.27;57.78
67697;BME280;54486;51.442;6.778;2023-04-25T09:39:52;101207.59;;;10.33;56.60
67697;BME280;54486;51.442;6.778;2023-04-25T09:42:22;101209.31;;;10.28;57.18
67697;BME280;54486;51.442;6.778;2023-04-25T09:44:53;101210.19;;;10.39;55.86
67697;BME280;54486;51.442;6.778;2023-04-25T09:47:23;101216.28;;;10.41;56.58
67697;BME280;54486;51.442;6.778;2023-04-25T09:49:51;101208.47;;;10.45;57.72
67697;BME280;54486;51.442;6.778;2023-04-25T09:52:21;101217.13;;;10.53;58.89
67697;BME280;54486;51.442;6.778;2023-04-25T09:54:51;101229.31;;;10.53;55.67
67697;BME280;54486;51.442;6.778;2023-04-25T09:57:20;101222.34;;;10.23;54.17
67697;BME280;54486;51.442;6.778;2023-04-25T09:59:49;101223.16;;;10.02;53.80
67697;BME280;54486;51.442;6.778;2023-04-25T10:02:19;101230.09;;;9.97;54.86
67697;BME280;54486;51.442;6.778;2023-04-25T10:04:52;101228.44;;;10.18;57.36
67697;BME280;54486;51.442;6.778;2023-04-25T10:07:24;101226.72;;;10.32;52.85
67697;BME280;54486;51.442;6.778;2023-04-25T10:10:02;101233.66;;;10.39;53.13
67697;BME280;54486;51.442;6.778;2023-04-25T10:12:32;101229.31;;;10.53;53.84
67697;BME280;54486;51.442;6.778;2023-04-25T10:15:00;101237.13;;;10.41;53.70
67697;BME280;54486;51.442;6.778;2023-04-25T10:17:29;101240.59;;;10.22;54.05
67697;BME280;54486;51.442;6.778;2023-04-25T10:20:02;101238.84;;;10.19;55.03
67697;BME280;54486;51.442;6.778;2023-04-25T10:22:42;101244.00;;;10.05;54.97
67697;BME280;54486;51.442;6.778;2023-04-25T10:25:10;101237.13;;;10.17;55.78
67697;BME280;54486;51.442;6.778;2023-04-25T10:27:38;101234.53;;;10.26;54.17
67697;BME280;54486;51.442;6.778;2023-04-25T10:30:13;101238.00;;;10.14;53.75
67697;BME280;54486;51.442;6.778;2023-04-25T10:32:43;101235.31;;;10.03;54.40
67697;BME280;54486;51.442;6.778;2023-04-25T10:35:15;101224.03;;;10.09;53.75
67697;BME280;54486;51.442;6.778;2023-04-25T10:37:59;101240.59;;;10.31;50.83
67697;BME280;54486;51.442;6.778;2023-04-25T10:40:27;101231.94;;;10.65;51.81
67697;BME280;54486;51.442;6.778;2023-04-25T10:42:54;101244.97;;;10.77;52.13
67697;BME280;54486;51.442;6.778;2023-04-25T10:45:25;101244.13;;;10.75;53.63
67697;BME280;54486;51.442;6.778;2023-04-25T10:47:52;101242.34;;;10.86;53.07
67697;BME280;54486;51.442;6.778;2023-04-25T10:50:19;101243.22;;;10.87;54.77
67697;BME280;54486;51.442;6.778;2023-04-25T10:52:46;101251.94;;;10.83;58.35
67697;BME280;54486;51.442;6.778;2023-04-25T10:55:13;101261.50;;;10.73;59.45
67697;BME280;54486;51.442;6.778;2023-04-25T10:57:44;101258.03;;;10.54;60.11
67697;BME280;54486;51.442;6.778;2023-04-25T11:00:18;101258.00;;;10.47;61.19
67697;BME280;54486;51.442;6.778;2023-04-25T11:02:57;101259.75;;;10.36;62.35
67697;BME280;54486;51.442;6.778;2023-04-25T11:05:33;101258.00;;;10.35;63.22
67697;BME280;54486;51.442;6.778;2023-04-25T11:08:11;101264.97;;;10.36;62.77
67697;BME280;54486;51.442;6.778;2023-04-25T11:10:41;101259.75;;;10.37;62.71
67697;BME280;54486;51.442;6.778;2023-04-25T11:13:08;101271.94;;;10.37;62.83
67697;BME280;54486;51.442;6.778;2023-04-25T11:15:36;101266.72;;;10.34;62.80
67697;BME280;54486;51.442;6.778;2023-04-25T11:18:03;101272.78;;;10.25;62.61
67697;BME280;54486;51.442;6.778;2023-04-25T11:20:33;101277.91;;;10.04;62.67
67697;BME280;54486;51.442;6.778;2023-04-25T11:23:01;101275.28;;;10.02;62.29
67697;BME280;54486;51.442;6.778;2023-04-25T11:25:33;101270.91;;;9.88;62.41
67697;BME280;54486;51.442;6.778;2023-04-25T11:28:03;101272.69;;;9.95;61.73
67697;BME280;54486;51.442;6.778;2023-04-25T11:30:30;101270.97;;;10.04;63.88
67697;BME280;54486;51.442;6.778;2023-04-25T11:32:57;101277.09;;;10.22;63.36
67697;BME280;54486;51.442;6.778;2023-04-25T11:35:24;101274.56;;;10.37;63.92
67697;BME280;54486;51.442;6.778;2023-04-25T11:37:52;101272.78;;;10.37;61.40
67697;BME280;54486;51.442;6.778;2023-04-25T11:40:19;101273.66;;;10.29;61.48
67697;BME280;54486;51.442;6.778;2023-04-25T11:42:47;101275.38;;;10.34;62.63
67697;BME280;54486;51.442;6.778;2023-04-25T11:45:15;101282.31;;;10.25;61.74
67697;BME280;54486;51.442;6.778;2023-04-25T11:47:42;101289.22;;;10.07;61.00
67697;BME280;54486;51.442;6.778;2023-04-25T11:50:10;101291.81;;;10.04;61.12
67697;BME280;54486;51.442;6.778;2023-04-25T11:52:45;101297.88;;;9.91;63.05
67697;BME280;54486;51.442;6.778;2023-04-25T11:55:17;101305.38;;;9.31;66.52
67697;BME280;54486;51.442;6.778;2023-04-25T11:57:47;101304.38;;;9.14;70.02
67697;BME280;54486;51.442;6.778;2023-04-25T12:00:18;101307.63;;;8.82;71.40
67697;BME280;54486;51.442;6.778;2023-04-25T12:02:51;101293.72;;;8.77;73.58
67697;BME280;54486;51.442;6.778;2023-04-25T12:05:20;101304.22;;;8.91;78.42
67697;BME280;54486;51.442;6.778;2023-04-25T12:08:19;101298.13;;;8.89;70.65
67697;BME280;54486;51.442;6.778;2023-04-25T12:10:46;101293.88;;;8.98;72.30
67697;BME280;54486;51.442;6.778;2023-04-25T12:13:24;101292.28;;;9.16;72.49
67697;BME280;54486;51.442;6.778;2023-04-25T12:15:54;101288.97;;;9.44;73.99
67697;BME280;54486;51.442;6.778;2023-04-25T12:18:24;101290.72;;;9.51;70.94
67697;BME280;54486;51.442;6.778;2023-04-25T12:20:55;101295.94;;;9.54;68.88
67697;BME280;54486;51.442;6.778;2023-04-25T12:23:29;101297.66;;;9.49;70.39
67697;BME280;54486;51.442;6.778;2023-04-25T12:25:57;101297.75;;;9.63;71.65
67697;BME280;54486;51.442;6.778;2023-04-25T12:28:25;101296.06;;;9.78;70.54
67697;BME280;54486;51.442;6.778;2023-04-25T12:33:25;101293.56;;;10.10;66.81
67697;BME280;54486;51.442;6.778;2023-04-25T12:35:53;101291.91;;;10.23;59.82
67697;BME280;54486;51.442;6.778;2023-04-25T12:38:29;101291.00;;;10.16;58.78
67697;BME280;54486;51.442;6.778;2023-04-25T12:40:58;101288.44;;;10.28;60.27
67697;BME280;54486;51.442;6.778;2023-04-25T12:43:25;101282.38;;;10.64;60.73
67697;BME280;54486;51.442;6.778;2023-04-25T12:45:53;101284.13;;;10.86;57.31
67697;BME280;54486;51.442;6.778;2023-04-25T12:48:22;101285.84;;;11.02;57.08
67697;BME280;54486;51.442;6.778;2023-04-25T12:50:51;101280.59;;;11.39;55.27
67697;BME280;54486;51.442;6.778;2023-04-25T12:53:21;101284.84;;;11.73;55.17
67697;BME280;54486;51.442;6.778;2023-04-25T12:55:48;101289.97;;;11.94;54.21
67697;BME280;54486;51.442;6.778;2023-04-25T12:58:16;101296.19;;;11.60;54.08
67697;BME280;54486;51.442;6.778;2023-04-25T13:00:44;101294.50;;;11.38;57.77
67697;BME280;54486;51.442;6.778;2023-04-25T13:03:12;101301.50;;;11.11;55.66
67697;BME280;54486;51.442;6.778;2023-04-25T13:05:40;101306.75;;;10.87;61.15
67697;BME280;54486;51.442;6.778;2023-04-25T13:08:07;101317.19;;;10.69;62.68
67697;BME280;54486;51.442;6.778;2023-04-25T13:10:35;101313.69;;;10.40;62.54
67697;BME280;54486;51.442;6.778;2023-04-25T13:13:03;101318.03;;;10.39;65.04
67697;BME280;54486;51.442;6.778;2023-04-25T13:15:30;101313.69;;;10.40;64.94